sensor_id;sensor_type;location;lat;lon;timestamp;P1;durP1;ratioP1;P2;durP2;ratioP2
17725;SDS011;8983;53.156;17.960;2023-02-13T00:01:01;15.77;;;9.30;;
17725;SDS011;8983;53.156;17.960;2023-02-13T00:03:29;18.50;;;8.70;;
17725;SDS011;8983;53.156;17.960;2023-02-13T00:05:57;15.07;;;8.10;;
17725;SDS011;8983;53.156;17.960;2023-02-13T00:08:25;15.30;;;8.80;;
17725;SDS011;8983;53.156;17.960;2023-02-13T00:10:54;15.93;;;8.73;;
17725;SDS011;8983;53.156;17.960;2023-02-13T00:13:22;16.63;;;8.83;;
17725;SDS011;8983;53.156;17.960;2023-02-13T00:15:54;17.00;;;8.87;;
17725;SDS011;8983;53.156;17.960;2023-02-13T00:18:23;15.60;;;8.60;;
17725;SDS011;8983;53.156;17.960;2023-02-13T00:20:58;16.63;;;8.53;;
17725;SDS011;8983;53.156;17.960;2023-02-13T00:23:27;17.90;;;8.77;;
17725;SDS011;8983;53.156;17.960;2023-02-13T00:25:59;13.80;;;9.07;;
17725;SDS011;8983;53.156;17.960;2023-02-13T00:28:28;16.03;;;8.43;;
17725;SDS011;8983;53.156;17.960;2023-02-13T00:31:01;18.83;;;9.00;;
17725;SDS011;8983;53.156;17.960;2023-02-13T00:33:30;16.27;;;8.40;;
17725;SDS011;8983;53.156;17.960;2023-02-13T00:36:02;16.60;;;8.80;;
17725;SDS011;8983;53.156;17.960;2023-02-13T00:38:31;15.97;;;8.17;;
17725;SDS011;8983;53.156;17.960;2023-02-13T00:41:00;14.23;;;7.87;;
17725;SDS011;8983;53.156;17.960;2023-02-13T00:43:29;13.33;;;7.80;;
17725;SDS011;8983;53.156;17.960;2023-02-13T00:45:57;14.63;;;7.10;;
17725;SDS011;8983;53.156;17.960;2023-02-13T00:48:26;13.63;;;7.87;;
17725;SDS011;8983;53.156;17.960;2023-02-13T00:50:56;12.70;;;7.47;;
17725;SDS011;8983;53.156;17.960;2023-02-13T00:53:25;17.20;;;7.53;;
17725;SDS011;8983;53.156;17.960;2023-02-13T00:55:53;12.93;;;7.17;;
17725;SDS011;8983;53.156;17.960;2023-02-13T00:58:22;13.33;;;7.67;;
17725;SDS011;8983;53.156;17.960;2023-02-13T01:00:51;15.20;;;8.20;;
17725;SDS011;8983;53.156;17.960;2023-02-13T01:03:20;10.33;;;7.23;;
17725;SDS011;8983;53.156;17.960;2023-02-13T01:05:49;13.07;;;6.97;;
17725;SDS011;8983;53.156;17.960;2023-02-13T01:08:17;13.27;;;7.50;;
17725;SDS011;8983;53.156;17.960;2023-02-13T01:10:47;15.63;;;7.13;;
17725;SDS011;8983;53.156;17.960;2023-02-13T01:13:16;14.37;;;7.27;;
17725;SDS011;8983;53.156;17.960;2023-02-13T01:15:46;11.37;;;6.93;;
17725;SDS011;8983;53.156;17.960;2023-02-13T01:18:16;10.80;;;6.73;;
17725;SDS011;8983;53.156;17.960;2023-02-13T01:20:54;12.00;;;6.60;;
17725;SDS011;8983;53.156;17.960;2023-02-13T01:23:24;13.10;;;6.20;;
17725;SDS011;8983;53.156;17.960;2023-02-13T01:25:52;12.33;;;6.47;;
17725;SDS011;8983;53.156;17.960;2023-02-13T01:28:20;12.10;;;7.37;;
17725;SDS011;8983;53.156;17.960;2023-02-13T01:30:53;12.07;;;6.73;;
17725;SDS011;8983;53.156;17.960;2023-02-13T01:33:22;12.17;;;6.97;;
17725;SDS011;8983;53.156;17.960;2023-02-13T01:35:51;12.70;;;5.93;;
17725;SDS011;8983;53.156;17.960;2023-02-13T01:38:20;13.73;;;6.53;;
17725;SDS011;8983;53.156;17.960;2023-02-13T01:40:48;11.53;;;6.37;;
17725;SDS011;8983;53.156;17.960;2023-02-13T01:43:18;10.13;;;5.53;;
17725;SDS011;8983;53.156;17.960;2023-02-13T01:45:49;12.03;;;6.00;;
17725;SDS011;8983;53.156;17.960;2023-02-13T01:48:22;13.73;;;5.80;;
17725;SDS011;8983;53.156;17.960;2023-02-13T01:50:53;9.53;;;5.53;;
17725;SDS011;8983;53.156;17.960;2023-02-13T01:53:26;10.90;;;5.80;;
17725;SDS011;8983;53.156;17.960;2023-02-13T01:55:58;13.33;;;6.10;;
17725;SDS011;8983;53.156;17.960;2023-02-13T01:58:32;8.97;;;6.20;;
17725;SDS011;8983;53.156;17.960;2023-02-13T02:01:05;7.47;;;5.60;;
17725;SDS011;8983;53.156;17.960;2023-02-13T02:03:37;9.03;;;5.33;;
17725;SDS011;8983;53.156;17.960;2023-02-13T02:06:11;10.83;;;5.20;;
17725;SDS011;8983;53.156;17.960;2023-02-13T02:08:43;11.57;;;5.57;;
17725;SDS011;8983;53.156;17.960;2023-02-13T02:11:16;13.03;;;4.97;;
17725;SDS011;8983;53.156;17.960;2023-02-13T02:13:49;8.07;;;4.87;;
17725;SDS011;8983;53.156;17.960;2023-02-13T02:16:19;9.03;;;4.70;;
17725;SDS011;8983;53.156;17.960;2023-02-13T02:18:47;9.67;;;4.80;;
17725;SDS011;8983;53.156;17.960;2023-02-13T02:24:23;12.00;;;7.33;;
17725;SDS011;8983;53.156;17.960;2023-02-13T02:27:16;11.53;;;7.33;;
17725;SDS011;8983;53.156;17.960;2023-02-13T02:30:30;9.97;;;7.23;;
17725;SDS011;8983;53.156;17.960;2023-02-13T02:33:27;12.83;;;6.17;;
17725;SDS011;8983;53.156;17.960;2023-02-13T02:36:01;9.17;;;5.50;;
17725;SDS011;8983;53.156;17.960;2023-02-13T02:38:43;11.23;;;6.33;;
17725;SDS011;8983;53.156;17.960;2023-02-13T02:41:26;8.10;;;4.40;;
17725;SDS011;8983;53.156;17.960;2023-02-13T02:44:14;8.17;;;4.33;;
17725;SDS011;8983;53.156;17.960;2023-02-13T02:46:55;5.87;;;3.53;;
17725;SDS011;8983;53.156;17.960;2023-02-13T02:49:54;9.03;;;5.53;;
17725;SDS011;8983;53.156;17.960;2023-02-13T02:52:30;10.03;;;6.00;;
17725;SDS011;8983;53.156;17.960;2023-02-13T02:55:09;8.33;;;4.20;;
17725;SDS011;8983;53.156;17.960;2023-02-13T02:57:41;6.67;;;4.30;;
17725;SDS011;8983;53.156;17.960;2023-02-13T03:00:29;6.60;;;4.00;;
17725;SDS011;8983;53.156;17.960;2023-02-13T03:03:19;10.93;;;4.03;;
17725;SDS011;8983;53.156;17.960;2023-02-13T03:06:10;6.60;;;3.73;;
17725;SDS011;8983;53.156;17.960;2023-02-13T03:08:42;4.87;;;3.57;;
17725;SDS011;8983;53.156;17.960;2023-02-13T03:11:30;8.60;;;3.60;;
17725;SDS011;8983;53.156;17.960;2023-02-13T03:14:16;7.57;;;4.00;;
17725;SDS011;8983;53.156;17.960;2023-02-13T03:16:46;9.23;;;4.63;;
17725;SDS011;8983;53.156;17.960;2023-02-13T03:19:36;9.73;;;4.50;;
17725;SDS011;8983;53.156;17.960;2023-02-13T03:22:30;6.47;;;4.20;;
17725;SDS011;8983;53.156;17.960;2023-02-13T03:25:10;7.97;;;4.57;;
17725;SDS011;8983;53.156;17.960;2023-02-13T03:27:45;5.97;;;4.10;;
17725;SDS011;8983;53.156;17.960;2023-02-13T03:30:38;11.70;;;4.33;;
17725;SDS011;8983;53.156;17.960;2023-02-13T03:33:21;7.23;;;4.40;;
17725;SDS011;8983;53.156;17.960;2023-02-13T03:35:57;9.17;;;4.03;;
17725;SDS011;8983;53.156;17.960;2023-02-13T03:38:54;5.77;;;3.30;;
17725;SDS011;8983;53.156;17.960;2023-02-13T03:41:26;5.50;;;3.80;;
17725;SDS011;8983;53.156;17.960;2023-02-13T03:43:59;6.53;;;3.63;;
17725;SDS011;8983;53.156;17.960;2023-02-13T03:46:32;4.97;;;3.13;;
17725;SDS011;8983;53.156;17.960;2023-02-13T03:49:04;6.70;;;4.20;;
17725;SDS011;8983;53.156;17.960;2023-02-13T03:51:55;7.43;;;4.07;;
17725;SDS011;8983;53.156;17.960;2023-02-13T03:54:30;9.43;;;4.27;;
17725;SDS011;8983;53.156;17.960;2023-02-13T03:57:20;9.70;;;4.50;;
17725;SDS011;8983;53.156;17.960;2023-02-13T04:00:09;7.20;;;3.63;;
17725;SDS011;8983;53.156;17.960;2023-02-13T04:02:41;7.47;;;3.67;;
17725;SDS011;8983;53.156;17.960;2023-02-13T04:05:18;8.00;;;4.17;;
17725;SDS011;8983;53.156;17.960;2023-02-13T04:07:49;8.83;;;4.23;;
17725;SDS011;8983;53.156;17.960;2023-02-13T04:10:18;7.60;;;4.10;;
17725;SDS011;8983;53.156;17.960;2023-02-13T04:12:51;18.07;;;7.00;;
17725;SDS011;8983;53.156;17.960;2023-02-13T04:15:27;13.90;;;6.60;;
17725;SDS011;8983;53.156;17.960;2023-02-13T04:18:01;20.57;;;9.30;;
17725;SDS011;8983;53.156;17.960;2023-02-13T04:20:36;13.00;;;6.63;;
17725;SDS011;8983;53.156;17.960;2023-02-13T04:23:05;13.90;;;5.17;;
17725;SDS011;8983;53.156;17.960;2023-02-13T04:25:36;14.13;;;6.97;;
17725;SDS011;8983;53.156;17.960;2023-02-13T04:28:06;7.57;;;4.87;;
17725;SDS011;8983;53.156;17.960;2023-02-13T04:30:34;8.23;;;4.80;;
17725;SDS011;8983;53.156;17.960;2023-02-13T04:33:02;10.97;;;4.90;;
17725;SDS011;8983;53.156;17.960;2023-02-13T04:35:30;9.97;;;4.40;;
17725;SDS011;8983;53.156;17.960;2023-02-13T04:37:59;7.53;;;4.70;;
17725;SDS011;8983;53.156;17.960;2023-02-13T04:40:27;7.47;;;4.70;;
17725;SDS011;8983;53.156;17.960;2023-02-13T04:42:56;9.13;;;5.13;;
17725;SDS011;8983;53.156;17.960;2023-02-13T04:45:24;6.73;;;4.10;;
17725;SDS011;8983;53.156;17.960;2023-02-13T04:47:53;6.80;;;4.90;;
17725;SDS011;8983;53.156;17.960;2023-02-13T04:50:22;12.23;;;5.30;;
17725;SDS011;8983;53.156;17.960;2023-02-13T04:52:51;8.50;;;5.20;;
17725;SDS011;8983;53.156;17.960;2023-02-13T04:55:20;10.07;;;4.83;;
17725;SDS011;8983;53.156;17.960;2023-02-13T04:57:50;8.40;;;4.93;;
17725;SDS011;8983;53.156;17.960;2023-02-13T05:00:20;9.17;;;4.87;;
17725;SDS011;8983;53.156;17.960;2023-02-13T05:02:49;8.63;;;5.17;;
17725;SDS011;8983;53.156;17.960;2023-02-13T05:05:17;12.40;;;5.10;;
17725;SDS011;8983;53.156;17.960;2023-02-13T05:07:45;9.50;;;5.17;;
17725;SDS011;8983;53.156;17.960;2023-02-13T05:10:13;9.80;;;4.90;;
17725;SDS011;8983;53.156;17.960;2023-02-13T05:12:41;10.80;;;5.57;;
17725;SDS011;8983;53.156;17.960;2023-02-13T05:15:09;10.13;;;5.70;;
17725;SDS011;8983;53.156;17.960;2023-02-13T05:17:39;9.17;;;6.10;;
17725;SDS011;8983;53.156;17.960;2023-02-13T05:20:09;9.17;;;5.37;;
17725;SDS011;8983;53.156;17.960;2023-02-13T05:22:42;9.43;;;5.17;;
17725;SDS011;8983;53.156;17.960;2023-02-13T05:25:28;8.40;;;5.43;;
17725;SDS011;8983;53.156;17.960;2023-02-13T05:27:56;9.57;;;5.90;;
17725;SDS011;8983;53.156;17.960;2023-02-13T05:30:24;15.63;;;6.47;;
17725;SDS011;8983;53.156;17.960;2023-02-13T05:32:53;10.37;;;6.83;;
17725;SDS011;8983;53.156;17.960;2023-02-13T05:35:21;11.03;;;6.53;;
17725;SDS011;8983;53.156;17.960;2023-02-13T05:37:50;15.70;;;6.73;;
17725;SDS011;8983;53.156;17.960;2023-02-13T05:40:18;14.30;;;6.70;;
17725;SDS011;8983;53.156;17.960;2023-02-13T05:42:48;13.03;;;7.30;;
17725;SDS011;8983;53.156;17.960;2023-02-13T05:45:16;11.73;;;6.10;;
17725;SDS011;8983;53.156;17.960;2023-02-13T05:47:44;13.33;;;6.60;;
17725;SDS011;8983;53.156;17.960;2023-02-13T05:50:13;12.60;;;7.33;;
17725;SDS011;8983;53.156;17.960;2023-02-13T05:52:41;10.43;;;5.50;;
17725;SDS011;8983;53.156;17.960;2023-02-13T05:55:09;10.97;;;6.27;;
17725;SDS011;8983;53.156;17.960;2023-02-13T05:57:37;12.73;;;7.23;;
17725;SDS011;8983;53.156;17.960;2023-02-13T06:00:05;7.97;;;6.40;;
17725;SDS011;8983;53.156;17.960;2023-02-13T06:02:34;8.63;;;6.27;;
17725;SDS011;8983;53.156;17.960;2023-02-13T06:05:02;16.73;;;7.30;;
17725;SDS011;8983;53.156;17.960;2023-02-13T06:07:32;7.57;;;5.17;;
17725;SDS011;8983;53.156;17.960;2023-02-13T06:10:00;12.53;;;6.80;;
17725;SDS011;8983;53.156;17.960;2023-02-13T06:12:28;11.00;;;6.63;;
17725;SDS011;8983;53.156;17.960;2023-02-13T06:14:56;9.93;;;6.13;;
17725;SDS011;8983;53.156;17.960;2023-02-13T06:17:23;9.53;;;6.30;;
17725;SDS011;8983;53.156;17.960;2023-02-13T06:19:51;9.33;;;5.77;;
17725;SDS011;8983;53.156;17.960;2023-02-13T06:22:19;8.10;;;5.70;;
17725;SDS011;8983;53.156;17.960;2023-02-13T06:24:49;9.40;;;6.00;;
17725;SDS011;8983;53.156;17.960;2023-02-13T06:27:17;7.70;;;5.20;;
17725;SDS011;8983;53.156;17.960;2023-02-13T06:29:45;9.37;;;5.50;;
17725;SDS011;8983;53.156;17.960;2023-02-13T06:32:13;10.13;;;5.77;;
17725;SDS011;8983;53.156;17.960;2023-02-13T06:34:41;10.80;;;6.37;;
17725;SDS011;8983;53.156;17.960;2023-02-13T06:37:09;6.50;;;5.20;;
17725;SDS011;8983;53.156;17.960;2023-02-13T06:39:36;7.37;;;5.43;;
17725;SDS011;8983;53.156;17.960;2023-02-13T06:42:06;9.17;;;5.33;;
17725;SDS011;8983;53.156;17.960;2023-02-13T06:44:34;10.93;;;5.47;;
17725;SDS011;8983;53.156;17.960;2023-02-13T06:47:02;7.73;;;5.90;;
17725;SDS011;8983;53.156;17.960;2023-02-13T06:49:30;9.53;;;5.63;;
17725;SDS011;8983;53.156;17.960;2023-02-13T06:51:57;9.10;;;6.17;;
17725;SDS011;8983;53.156;17.960;2023-02-13T06:54:25;9.70;;;5.73;;
17725;SDS011;8983;53.156;17.960;2023-02-13T06:57:13;12.37;;;5.97;;
17725;SDS011;8983;53.156;17.960;2023-02-13T06:59:41;7.90;;;5.60;;
17725;SDS011;8983;53.156;17.960;2023-02-13T07:02:09;13.77;;;7.17;;
17725;SDS011;8983;53.156;17.960;2023-02-13T07:04:37;11.90;;;6.73;;
17725;SDS011;8983;53.156;17.960;2023-02-13T07:07:05;11.87;;;7.57;;
17725;SDS011;8983;53.156;17.960;2023-02-13T07:09:33;12.27;;;6.30;;
17725;SDS011;8983;53.156;17.960;2023-02-13T07:12:02;9.00;;;6.07;;
17725;SDS011;8983;53.156;17.960;2023-02-13T07:14:32;10.50;;;5.67;;
17725;SDS011;8983;53.156;17.960;2023-02-13T07:17:00;7.10;;;5.60;;
17725;SDS011;8983;53.156;17.960;2023-02-13T07:19:28;8.73;;;5.77;;
17725;SDS011;8983;53.156;17.960;2023-02-13T07:21:56;10.50;;;5.40;;
17725;SDS011;8983;53.156;17.960;2023-02-13T07:24:23;7.17;;;4.40;;
17725;SDS011;8983;53.156;17.960;2023-02-13T07:26:51;7.97;;;4.87;;
17725;SDS011;8983;53.156;17.960;2023-02-13T07:29:19;9.80;;;5.03;;
17725;SDS011;8983;53.156;17.960;2023-02-13T07:31:49;11.27;;;4.73;;
17725;SDS011;8983;53.156;17.960;2023-02-13T07:34:17;9.00;;;4.60;;
17725;SDS011;8983;53.156;17.960;2023-02-13T07:36:45;6.87;;;4.63;;
17725;SDS011;8983;53.156;17.960;2023-02-13T07:39:13;7.37;;;4.87;;
17725;SDS011;8983;53.156;17.960;2023-02-13T07:41:41;7.10;;;4.53;;
17725;SDS011;8983;53.156;17.960;2023-02-13T07:44:09;7.77;;;4.50;;
17725;SDS011;8983;53.156;17.960;2023-02-13T07:46:37;7.10;;;4.70;;
17725;SDS011;8983;53.156;17.960;2023-02-13T07:49:06;7.87;;;5.00;;
17725;SDS011;8983;53.156;17.960;2023-02-13T07:51:35;5.70;;;4.40;;
17725;SDS011;8983;53.156;17.960;2023-02-13T07:54:02;6.60;;;4.67;;
17725;SDS011;8983;53.156;17.960;2023-02-13T07:56:30;6.60;;;4.60;;
17725;SDS011;8983;53.156;17.960;2023-02-13T07:58:58;9.00;;;5.00;;
17725;SDS011;8983;53.156;17.960;2023-02-13T08:01:26;8.40;;;4.73;;
17725;SDS011;8983;53.156;17.960;2023-02-13T08:03:55;8.90;;;4.80;;
17725;SDS011;8983;53.156;17.960;2023-02-13T08:06:24;7.00;;;4.63;;
17725;SDS011;8983;53.156;17.960;2023-02-13T08:08:52;8.17;;;4.97;;
17725;SDS011;8983;53.156;17.960;2023-02-13T08:11:34;7.33;;;4.97;;
17725;SDS011;8983;53.156;17.960;2023-02-13T08:14:21;8.97;;;4.80;;
17725;SDS011;8983;53.156;17.960;2023-02-13T08:16:50;7.17;;;4.67;;
17725;SDS011;8983;53.156;17.960;2023-02-13T08:19:19;7.37;;;4.83;;
17725;SDS011;8983;53.156;17.960;2023-02-13T08:21:48;9.07;;;5.37;;
17725;SDS011;8983;53.156;17.960;2023-02-13T08:24:16;11.33;;;6.33;;
17725;SDS011;8983;53.156;17.960;2023-02-13T08:26:44;7.37;;;4.63;;
17725;SDS011;8983;53.156;17.960;2023-02-13T08:29:12;10.37;;;5.40;;
17725;SDS011;8983;53.156;17.960;2023-02-13T08:31:40;7.40;;;5.17;;
17725;SDS011;8983;53.156;17.960;2023-02-13T08:34:09;7.40;;;5.27;;
17725;SDS011;8983;53.156;17.960;2023-02-13T08:36:37;10.30;;;5.70;;
17725;SDS011;8983;53.156;17.960;2023-02-13T08:39:07;9.53;;;4.90;;
17725;SDS011;8983;53.156;17.960;2023-02-13T08:41:36;8.43;;;4.73;;
17725;SDS011;8983;53.156;17.960;2023-02-13T08:44:04;7.37;;;5.27;;
17725;SDS011;8983;53.156;17.960;2023-02-13T08:46:32;8.00;;;4.77;;
17725;SDS011;8983;53.156;17.960;2023-02-13T08:49:00;8.03;;;5.57;;
17725;SDS011;8983;53.156;17.960;2023-02-13T08:51:28;8.20;;;4.70;;
17725;SDS011;8983;53.156;17.960;2023-02-13T08:53:56;6.00;;;4.57;;
17725;SDS011;8983;53.156;17.960;2023-02-13T08:56:25;6.53;;;4.00;;
17725;SDS011;8983;53.156;17.960;2023-02-13T08:58:53;9.03;;;4.60;;
17725;SDS011;8983;53.156;17.960;2023-02-13T09:01:21;8.37;;;4.43;;
17725;SDS011;8983;53.156;17.960;2023-02-13T09:03:50;8.03;;;4.30;;
17725;SDS011;8983;53.156;17.960;2023-02-13T09:06:18;7.00;;;4.50;;
17725;SDS011;8983;53.156;17.960;2023-02-13T09:08:47;6.80;;;4.10;;
17725;SDS011;8983;53.156;17.960;2023-02-13T09:11:15;6.20;;;4.53;;
17725;SDS011;8983;53.156;17.960;2023-02-13T09:13:44;7.50;;;4.57;;
17725;SDS011;8983;53.156;17.960;2023-02-13T09:16:13;7.80;;;4.10;;
17725;SDS011;8983;53.156;17.960;2023-02-13T09:18:42;8.00;;;4.43;;
17725;SDS011;8983;53.156;17.960;2023-02-13T09:21:10;7.87;;;4.37;;
17725;SDS011;8983;53.156;17.960;2023-02-13T09:23:39;7.77;;;4.40;;
17725;SDS011;8983;53.156;17.960;2023-02-13T09:26:08;5.13;;;4.23;;
17725;SDS011;8983;53.156;17.960;2023-02-13T09:28:38;7.93;;;4.20;;
17725;SDS011;8983;53.156;17.960;2023-02-13T09:31:09;6.63;;;4.63;;
17725;SDS011;8983;53.156;17.960;2023-02-13T09:33:39;9.20;;;4.30;;
17725;SDS011;8983;53.156;17.960;2023-02-13T09:36:08;8.13;;;4.37;;
17725;SDS011;8983;53.156;17.960;2023-02-13T09:38:38;5.60;;;4.13;;
17725;SDS011;8983;53.156;17.960;2023-02-13T09:41:09;7.97;;;4.70;;
17725;SDS011;8983;53.156;17.960;2023-02-13T09:43:43;6.03;;;4.07;;
17725;SDS011;8983;53.156;17.960;2023-02-13T09:46:17;7.67;;;4.63;;
17725;SDS011;8983;53.156;17.960;2023-02-13T09:48:48;6.93;;;4.20;;
17725;SDS011;8983;53.156;17.960;2023-02-13T09:51:19;7.77;;;4.47;;
17725;SDS011;8983;53.156;17.960;2023-02-13T09:53:50;7.03;;;3.80;;
17725;SDS011;8983;53.156;17.960;2023-02-13T09:56:21;7.07;;;4.40;;
17725;SDS011;8983;53.156;17.960;2023-02-13T09:58:59;8.50;;;4.30;;
17725;SDS011;8983;53.156;17.960;2023-02-13T10:01:34;8.43;;;4.93;;
17725;SDS011;8983;53.156;17.960;2023-02-13T10:04:15;7.37;;;4.87;;
17725;SDS011;8983;53.156;17.960;2023-02-13T10:06:53;6.17;;;4.40;;
17725;SDS011;8983;53.156;17.960;2023-02-13T10:09:29;7.33;;;4.10;;
17725;SDS011;8983;53.156;17.960;2023-02-13T10:12:12;9.17;;;4.27;;
17725;SDS011;8983;53.156;17.960;2023-02-13T10:14:51;6.67;;;4.10;;
17725;SDS011;8983;53.156;17.960;2023-02-13T10:17:29;9.90;;;4.80;;
17725;SDS011;8983;53.156;17.960;2023-02-13T10:20:02;8.50;;;4.37;;
17725;SDS011;8983;53.156;17.960;2023-02-13T10:22:34;4.90;;;3.40;;
17725;SDS011;8983;53.156;17.960;2023-02-13T10:25:07;4.80;;;3.77;;
17725;SDS011;8983;53.156;17.960;2023-02-13T10:27:43;6.90;;;3.83;;
17725;SDS011;8983;53.156;17.960;2023-02-13T10:30:16;6.13;;;3.73;;
17725;SDS011;8983;53.156;17.960;2023-02-13T10:32:50;7.03;;;3.77;;
17725;SDS011;8983;53.156;17.960;2023-02-13T10:35:39;4.97;;;3.80;;
17725;SDS011;8983;53.156;17.960;2023-02-13T10:38:14;11.17;;;4.50;;
17725;SDS011;8983;53.156;17.960;2023-02-13T10:40:47;7.87;;;4.23;;
17725;SDS011;8983;53.156;17.960;2023-02-13T10:43:27;5.80;;;3.33;;
17725;SDS011;8983;53.156;17.960;2023-02-13T10:46:02;4.00;;;3.23;;
17725;SDS011;8983;53.156;17.960;2023-02-13T10:48:46;3.87;;;3.30;;
17725;SDS011;8983;53.156;17.960;2023-02-13T10:51:25;7.60;;;3.40;;
17725;SDS011;8983;53.156;17.960;2023-02-13T10:54:05;6.97;;;3.20;;
17725;SDS011;8983;53.156;17.960;2023-02-13T10:56:49;5.90;;;3.20;;
17725;SDS011;8983;53.156;17.960;2023-02-13T10:59:29;5.90;;;3.50;;
17725;SDS011;8983;53.156;17.960;2023-02-13T11:02:10;6.70;;;3.33;;
17725;SDS011;8983;53.156;17.960;2023-02-13T11:04:52;6.37;;;3.97;;
17725;SDS011;8983;53.156;17.960;2023-02-13T11:07:25;5.50;;;3.47;;
17725;SDS011;8983;53.156;17.960;2023-02-13T11:09:57;27.90;;;11.00;;
17725;SDS011;8983;53.156;17.960;2023-02-13T11:12:30;5.33;;;3.87;;
17725;SDS011;8983;53.156;17.960;2023-02-13T11:15:00;3.97;;;3.10;;
17725;SDS011;8983;53.156;17.960;2023-02-13T11:17:30;4.97;;;3.40;;
17725;SDS011;8983;53.156;17.960;2023-02-13T11:20:03;6.30;;;3.50;;
17725;SDS011;8983;53.156;17.960;2023-02-13T11:22:34;5.17;;;3.20;;
17725;SDS011;8983;53.156;17.960;2023-02-13T11:25:05;5.53;;;3.47;;
17725;SDS011;8983;53.156;17.960;2023-02-13T11:27:44;5.73;;;3.10;;
17725;SDS011;8983;53.156;17.960;2023-02-13T11:30:28;6.03;;;3.50;;
17725;SDS011;8983;53.156;17.960;2023-02-13T11:32:59;4.27;;;3.07;;
17725;SDS011;8983;53.156;17.960;2023-02-13T11:35:31;6.50;;;3.83;;
17725;SDS011;8983;53.156;17.960;2023-02-13T11:38:15;7.87;;;3.27;;
17725;SDS011;8983;53.156;17.960;2023-02-13T11:40:49;4.73;;;3.47;;
17725;SDS011;8983;53.156;17.960;2023-02-13T11:43:29;8.73;;;4.67;;
17725;SDS011;8983;53.156;17.960;2023-02-13T11:46:02;6.67;;;3.50;;
17725;SDS011;8983;53.156;17.960;2023-02-13T11:48:33;6.80;;;3.83;;
17725;SDS011;8983;53.156;17.960;2023-02-13T11:51:02;7.30;;;3.50;;
17725;SDS011;8983;53.156;17.960;2023-02-13T11:53:31;6.47;;;4.37;;
17725;SDS011;8983;53.156;17.960;2023-02-13T11:56:06;7.17;;;4.27;;
17725;SDS011;8983;53.156;17.960;2023-02-13T11:58:35;5.93;;;3.83;;
17725;SDS011;8983;53.156;17.960;2023-02-13T12:01:08;5.87;;;3.93;;
17725;SDS011;8983;53.156;17.960;2023-02-13T12:03:55;5.07;;;3.50;;
17725;SDS011;8983;53.156;17.960;2023-02-13T12:06:30;7.57;;;4.30;;
17725;SDS011;8983;53.156;17.960;2023-02-13T12:09:07;7.43;;;3.90;;
17725;SDS011;8983;53.156;17.960;2023-02-13T12:11:40;14.77;;;4.03;;
17725;SDS011;8983;53.156;17.960;2023-02-13T12:14:13;6.13;;;4.20;;
17725;SDS011;8983;53.156;17.960;2023-02-13T12:16:46;4.40;;;3.50;;
17725;SDS011;8983;53.156;17.960;2023-02-13T12:19:18;7.70;;;4.07;;
17725;SDS011;8983;53.156;17.960;2023-02-13T12:22:02;7.47;;;4.07;;
17725;SDS011;8983;53.156;17.960;2023-02-13T12:24:53;7.47;;;4.10;;
17725;SDS011;8983;53.156;17.960;2023-02-13T12:27:42;8.97;;;4.00;;
17725;SDS011;8983;53.156;17.960;2023-02-13T12:30:24;6.57;;;3.93;;
17725;SDS011;8983;53.156;17.960;2023-02-13T12:33:06;8.60;;;4.10;;
17725;SDS011;8983;53.156;17.960;2023-02-13T12:35:47;6.90;;;3.70;;
17725;SDS011;8983;53.156;17.960;2023-02-13T12:38:28;8.10;;;3.87;;
17725;SDS011;8983;53.156;17.960;2023-02-13T12:41:12;5.27;;;3.87;;
17725;SDS011;8983;53.156;17.960;2023-02-13T12:46:39;8.97;;;4.73;;
17725;SDS011;8983;53.156;17.960;2023-02-13T12:49:19;7.90;;;3.90;;
17725;SDS011;8983;53.156;17.960;2023-02-13T12:52:13;6.50;;;3.93;;
17725;SDS011;8983;53.156;17.960;2023-02-13T12:55:01;5.00;;;4.10;;
17725;SDS011;8983;53.156;17.960;2023-02-13T12:57:49;6.97;;;3.60;;
17725;SDS011;8983;53.156;17.960;2023-02-13T13:00:34;9.83;;;4.50;;
17725;SDS011;8983;53.156;17.960;2023-02-13T13:03:24;7.67;;;4.57;;
17725;SDS011;8983;53.156;17.960;2023-02-13T13:06:02;7.57;;;3.73;;
17725;SDS011;8983;53.156;17.960;2023-02-13T13:08:50;6.43;;;3.73;;
17725;SDS011;8983;53.156;17.960;2023-02-13T13:14:26;4.67;;;3.47;;
17725;SDS011;8983;53.156;17.960;2023-02-13T13:17:03;7.30;;;3.43;;
17725;SDS011;8983;53.156;17.960;2023-02-13T13:19:39;10.53;;;3.83;;
17725;SDS011;8983;53.156;17.960;2023-02-13T13:22:16;6.20;;;3.47;;
17725;SDS011;8983;53.156;17.960;2023-02-13T13:24:52;5.67;;;3.10;;
17725;SDS011;8983;53.156;17.960;2023-02-13T13:27:29;6.23;;;3.80;;
17725;SDS011;8983;53.156;17.960;2023-02-13T13:30:00;4.57;;;3.50;;
17725;SDS011;8983;53.156;17.960;2023-02-13T13:32:32;11.27;;;5.63;;
17725;SDS011;8983;53.156;17.960;2023-02-13T13:35:01;6.83;;;4.00;;
17725;SDS011;8983;53.156;17.960;2023-02-13T13:37:31;5.10;;;3.17;;
17725;SDS011;8983;53.156;17.960;2023-02-13T13:40:05;4.33;;;3.13;;
17725;SDS011;8983;53.156;17.960;2023-02-13T13:42:52;10.00;;;4.40;;
17725;SDS011;8983;53.156;17.960;2023-02-13T13:45:28;7.03;;;3.70;;
17725;SDS011;8983;53.156;17.960;2023-02-13T13:48:13;8.63;;;3.13;;
17725;SDS011;8983;53.156;17.960;2023-02-13T13:50:54;9.07;;;3.70;;
17725;SDS011;8983;53.156;17.960;2023-02-13T13:53:23;4.03;;;2.83;;
17725;SDS011;8983;53.156;17.960;2023-02-13T13:55:59;10.27;;;5.17;;
17725;SDS011;8983;53.156;17.960;2023-02-13T13:58:40;7.27;;;4.20;;
17725;SDS011;8983;53.156;17.960;2023-02-13T14:01:16;6.33;;;3.30;;
17725;SDS011;8983;53.156;17.960;2023-02-13T14:03:49;6.80;;;3.27;;
17725;SDS011;8983;53.156;17.960;2023-02-13T14:06:19;5.63;;;3.60;;
17725;SDS011;8983;53.156;17.960;2023-02-13T14:08:52;4.40;;;2.80;;
17725;SDS011;8983;53.156;17.960;2023-02-13T14:11:26;6.47;;;3.00;;
17725;SDS011;8983;53.156;17.960;2023-02-13T14:20:20;3.10;;;2.70;;
17725;SDS011;8983;53.156;17.960;2023-02-13T14:22:54;4.27;;;2.30;;
17725;SDS011;8983;53.156;17.960;2023-02-13T14:25:31;8.03;;;4.23;;
17725;SDS011;8983;53.156;17.960;2023-02-13T14:28:00;14.30;;;8.77;;
17725;SDS011;8983;53.156;17.960;2023-02-13T14:30:31;12.63;;;7.23;;
17725;SDS011;8983;53.156;17.960;2023-02-13T14:33:02;5.17;;;3.80;;
17725;SDS011;8983;53.156;17.960;2023-02-13T14:35:33;4.00;;;2.90;;
17725;SDS011;8983;53.156;17.960;2023-02-13T14:38:04;5.90;;;3.33;;
17725;SDS011;8983;53.156;17.960;2023-02-13T14:43:17;19.70;;;7.87;;
17725;SDS011;8983;53.156;17.960;2023-02-13T14:45:49;16.40;;;6.83;;
17725;SDS011;8983;53.156;17.960;2023-02-13T14:48:23;6.00;;;3.50;;
17725;SDS011;8983;53.156;17.960;2023-02-13T14:50:59;5.17;;;3.83;;
17725;SDS011;8983;53.156;17.960;2023-02-13T14:53:29;4.53;;;3.30;;
17725;SDS011;8983;53.156;17.960;2023-02-13T14:56:04;6.10;;;3.30;;
17725;SDS011;8983;53.156;17.960;2023-02-13T14:58:34;6.77;;;3.50;;
17725;SDS011;8983;53.156;17.960;2023-02-13T15:01:22;5.17;;;4.20;;
17725;SDS011;8983;53.156;17.960;2023-02-13T15:03:58;8.77;;;3.83;;
17725;SDS011;8983;53.156;17.960;2023-02-13T15:06:33;7.70;;;3.97;;
17725;SDS011;8983;53.156;17.960;2023-02-13T15:09:05;8.27;;;3.43;;
17725;SDS011;8983;53.156;17.960;2023-02-13T15:11:44;7.27;;;3.67;;
17725;SDS011;8983;53.156;17.960;2023-02-13T15:14:22;5.80;;;3.47;;
17725;SDS011;8983;53.156;17.960;2023-02-13T15:16:53;8.50;;;3.87;;
17725;SDS011;8983;53.156;17.960;2023-02-13T15:19:25;5.40;;;3.97;;
17725;SDS011;8983;53.156;17.960;2023-02-13T15:21:54;7.67;;;4.30;;
17725;SDS011;8983;53.156;17.960;2023-02-13T15:24:25;7.33;;;4.80;;
17725;SDS011;8983;53.156;17.960;2023-02-13T15:26:59;11.67;;;5.57;;
17725;SDS011;8983;53.156;17.960;2023-02-13T15:29:28;5.80;;;3.83;;
17725;SDS011;8983;53.156;17.960;2023-02-13T15:32:17;6.50;;;3.90;;
17725;SDS011;8983;53.156;17.960;2023-02-13T15:34:49;6.90;;;4.30;;
17725;SDS011;8983;53.156;17.960;2023-02-13T15:37:19;4.53;;;3.40;;